Time;durP1;ratioP1;P1;durP2;ratioP2;P2;SDS_P1;SDS_P2;PMS_P1;PMS_P2;Temp;Humidity;BMP_temperature;BMP_pressure;BME280_temperature;BME280_humidity;BME280_pressure;Samples;Min_cycle;Max_cycle;Signal;HPM_P1;HPM_P2
2022/07/04 00:00:45;;;;;;;2.33;1.35;;;24.10;55.00;;;;;;5033030;28;20700;-67
2022/07/04 00:03:12;;;;;;;1.38;1.27;;;24.10;54.90;;;;;;5032852;28;20211;-67
2022/07/04 00:05:39;;;;;;;1.60;1.50;;;24.10;55.00;;;;;;5033003;28;20669;-67
2022/07/04 00:08:08;;;;;;;1.50;1.40;;;24.10;55.00;;;;;;5033938;28;20283;-67
2022/07/04 00:10:35;;;;;;;1.60;1.50;;;24.10;54.90;;;;;;5032897;28;20200;-67
2022/07/04 00:13:02;;;;;;;1.92;1.70;;;24.00;54.90;;;;;;5032781;28;20235;-67
2022/07/04 00:15:29;;;;;;;1.50;1.40;;;24.10;55.00;;;;;;5035237;28;20195;-67
2022/07/04 00:17:57;;;;;;;2.67;1.52;;;24.10;55.00;;;;;;5032915;28;20211;-67
2022/07/04 00:20:24;;;;;;;2.35;1.60;;;24.10;54.90;;;;;;5032844;28;20207;-67
2022/07/04 00:22:51;;;;;;;2.20;1.35;;;24.10;54.90;;;;;;5033700;28;20204;-67
2022/07/04 00:25:19;;;;;;;1.35;1.25;;;24.10;55.00;;;;;;5038195;28;20660;-67
2022/07/04 00:27:46;;;;;;;1.85;1.50;;;24.00;54.80;;;;;;5037293;28;20184;-67
2022/07/04 00:30:13;;;;;;;1.85;1.50;;;24.00;54.80;;;;;;5034449;28;20680;-67
2022/07/04 00:32:41;;;;;;;1.40;1.30;;;24.00;54.90;;;;;;5034263;28;20208;-66
2022/07/04 00:35:09;;;;;;;1.55;1.40;;;24.10;55.00;;;;;;5034245;28;20274;-67
2022/07/04 00:37:36;;;;;;;1.67;1.45;;;24.00;54.90;;;;;;5032259;28;20270;-67
2022/07/04 00:40:04;;;;;;;2.92;1.60;;;24.00;55.00;;;;;;5032244;28;20192;-67
2022/07/04 00:42:33;;;;;;;2.17;1.40;;;24.00;55.00;;;;;;5071307;22;20259;-72
2022/07/04 00:45:00;;;;;;;1.40;1.30;;;24.00;54.90;;;;;;5051773;28;20238;-73
2022/07/04 00:47:27;;;;;;;1.50;1.40;;;24.00;54.90;;;;;;5051715;28;20283;-73
2022/07/04 00:49:54;;;;;;;1.63;1.52;;;24.00;54.80;;;;;;5053248;28;20199;-73
2022/07/04 00:52:21;;;;;;;1.50;1.40;;;24.00;54.70;;;;;;5051553;28;20230;-73
2022/07/04 00:54:49;;;;;;;1.50;1.40;;;24.00;54.70;;;;;;5051865;28;20206;-73
2022/07/04 00:57:15;;;;;;;1.70;1.60;;;24.00;54.70;;;;;;5051499;28;20223;-73
2022/07/04 00:59:44;;;;;;;2.45;1.50;;;24.00;54.60;;;;;;5053046;28;20218;-73
2022/07/04 01:02:11;;;;;;;1.50;1.40;;;24.00;54.50;;;;;;5055364;28;20223;-73
2022/07/04 01:04:38;;;;;;;1.45;1.35;;;24.00;54.60;;;;;;5055445;28;20206;-73
2022/07/04 01:07:06;;;;;;;1.48;1.38;;;24.00;54.50;;;;;;5056726;28;20234;-73
2022/07/04 01:09:33;;;;;;;2.33;1.60;;;24.00;54.70;;;;;;5056712;28;20266;-73
2022/07/04 01:12:00;;;;;;;1.35;1.30;;;24.00;54.60;;;;;;5055394;28;20254;-73
2022/07/04 01:14:27;;;;;;;1.40;1.30;;;24.00;54.70;;;;;;5055332;28;20553;-73
2022/07/04 01:16:56;;;;;;;1.50;1.40;;;24.00;54.60;;;;;;5056630;28;20203;-73
2022/07/04 01:19:23;;;;;;;1.88;1.38;;;24.00;54.60;;;;;;5056543;28;20192;-73
2022/07/04 01:21:52;;;;;;;1.60;1.50;;;24.00;54.50;;;;;;5055268;28;20215;-72
2022/07/04 01:24:19;;;;;;;1.85;1.65;;;24.00;54.50;;;;;;5071880;28;20231;-73
2022/07/04 01:26:46;;;;;;;1.58;1.40;;;24.00;54.50;;;;;;5071798;28;20191;-73
2022/07/04 01:29:14;;;;;;;2.88;1.40;;;24.00;54.50;;;;;;5055119;28;20617;-73
2022/07/04 01:31:41;;;;;;;1.60;1.50;;;24.00;54.40;;;;;;5055058;28;20684;-72
2022/07/04 01:34:08;;;;;;;2.03;1.60;;;24.00;55.00;;;;;;5054997;28;20613;-73
2022/07/04 01:36:35;;;;;;;1.98;1.60;;;24.00;54.40;;;;;;5056099;28;20590;-73
2022/07/04 01:39:04;;;;;;;2.75;1.70;;;24.00;54.50;;;;;;5056059;28;20648;-73
2022/07/04 01:41:34;;;;;;;1.50;1.40;;;24.00;54.40;;;;;;5055835;28;20216;-72
2022/07/04 01:44:01;;;;;;;1.80;1.40;;;24.00;54.20;;;;;;5054906;28;20295;-72
2022/07/04 01:46:28;;;;;;;1.60;1.50;;;24.00;54.20;;;;;;5054716;28;20198;-73
2022/07/04 01:48:56;;;;;;;1.73;1.48;;;24.00;54.20;;;;;;5071337;28;20227;-73
2022/07/04 01:51:23;;;;;;;1.27;1.20;;;24.00;54.30;;;;;;5055707;28;20659;-73
2022/07/04 01:53:50;;;;;;;1.60;1.50;;;24.00;54.30;;;;;;5056004;28;20256;-72
2022/07/04 01:56:19;;;;;;;1.17;1.17;;;23.90;54.20;;;;;;5071207;28;20242;-72
2022/07/04 01:58:46;;;;;;;1.58;1.40;;;24.00;54.40;;;;;;5054337;28;20196;-73
2022/07/04 02:01:30;;;;;;;1.30;1.25;;;24.00;54.20;;;;;;5054622;28;20646;-73
2022/07/04 02:03:57;;;;;;;1.42;1.33;;;24.00;54.20;;;;;;5071575;28;20195;-73
2022/07/04 02:09:16;;;;;;;1.58;1.27;;;24.00;54.20;;;;;;5014115;28;20211;-73
2022/07/04 02:14:29;;;;;;;1.30;1.20;;;23.90;54.10;;;;;;5015341;28;20646;-72
2022/07/04 02:16:56;;;;;;;1.60;1.50;;;23.90;54.00;;;;;;5031462;28;20267;-73
2022/07/04 02:19:24;;;;;;;1.42;1.33;;;23.90;54.10;;;;;;5031590;28;20205;-73
2022/07/04 02:21:51;;;;;;;1.40;1.30;;;23.90;54.60;;;;;;5031241;28;20235;-74
2022/07/04 02:24:19;;;;;;;2.50;1.38;;;23.90;54.20;;;;;;5031081;28;20230;-73
2022/07/04 02:26:48;;;;;;;1.60;1.50;;;23.90;54.10;;;;;;5015974;28;20280;-73
2022/07/04 02:29:15;;;;;;;1.50;1.40;;;23.90;54.20;;;;;;5030816;28;20204;-73
2022/07/04 02:31:42;;;;;;;1.38;1.27;;;23.90;54.40;;;;;;5015667;28;20216;-73
2022/07/04 02:34:09;;;;;;;1.55;1.45;;;23.90;54.40;;;;;;5030589;28;20211;-73
2022/07/04 02:36:36;;;;;;;1.45;1.35;;;23.90;54.40;;;;;;5030399;28;20213;-73
2022/07/04 02:39:04;;;;;;;1.38;1.25;;;23.90;54.40;;;;;;5030451;28;20204;-72
2022/07/04 02:41:31;;;;;;;1.90;1.50;;;23.90;54.50;;;;;;5030668;28;20228;-73
2022/07/04 02:44:01;;;;;;;1.42;1.27;;;23.90;54.50;;;;;;5030431;28;20197;-73
2022/07/04 02:46:28;;;;;;;1.65;1.55;;;23.90;54.60;;;;;;5030442;28;20543;-73
2022/07/04 02:48:55;;;;;;;1.60;1.50;;;23.90;54.70;;;;;;5015324;28;20727;-72
2022/07/04 02:51:22;;;;;;;1.95;1.52;;;23.90;54.70;;;;;;5030320;28;20239;-73
2022/07/04 02:53:51;;;;;;;1.40;1.30;;;23.90;54.70;;;;;;5030493;28;20255;-73
2022/07/04 02:56:18;;;;;;;1.70;1.30;;;23.90;54.60;;;;;;5030235;28;20201;-73
2022/07/04 02:58:45;;;;;;;1.45;1.20;;;23.90;54.50;;;;;;5015169;28;20227;-73
2022/07/04 03:01:13;;;;;;;1.65;1.50;;;23.90;54.60;;;;;;5030206;28;20278;-73
2022/07/04 03:03:40;;;;;;;1.40;1.30;;;23.90;54.60;;;;;;5015133;28;20197;-72
2022/07/04 03:06:07;;;;;;;2.30;1.38;;;23.90;54.60;;;;;;5015157;28;20189;-73
2022/07/04 03:08:34;;;;;;;1.40;1.30;;;23.80;54.50;;;;;;5030406;28;20200;-73
2022/07/04 03:11:01;;;;;;;1.70;1.58;;;23.90;54.70;;;;;;5030422;28;20217;-73
2022/07/04 03:13:28;;;;;;;2.38;1.50;;;23.80;54.70;;;;;;5030010;28;20578;-73
2022/07/04 03:15:55;;;;;;;1.45;1.35;;;23.80;54.80;;;;;;5029880;28;20197;-73
2022/07/04 03:18:24;;;;;;;1.50;1.40;;;23.90;54.90;;;;;;5029654;28;20221;-74
2022/07/04 03:20:51;;;;;;;1.83;1.50;;;23.90;54.80;;;;;;5029725;28;20215;-73
2022/07/04 03:23:18;;;;;;;1.73;1.63;;;23.90;54.70;;;;;;5014187;28;20188;-73
2022/07/04 03:25:45;;;;;;;1.50;1.40;;;23.90;54.80;;;;;;5030578;28;20201;-73
2022/07/04 03:28:12;;;;;;;1.73;1.63;;;23.90;54.70;;;;;;5029686;28;20207;-73
2022/07/04 03:30:39;;;;;;;2.25;1.60;;;23.90;54.60;;;;;;5030273;28;20196;-73
2022/07/04 03:33:06;;;;;;;2.22;1.40;;;23.90;54.50;;;;;;5029984;28;20215;-73
2022/07/04 03:35:35;;;;;;;1.88;1.67;;;23.90;54.50;;;;;;5029746;28;20276;-73
2022/07/04 03:38:02;;;;;;;1.70;1.60;;;23.90;54.60;;;;;;5029259;28;20220;-73
2022/07/04 03:40:30;;;;;;;1.40;1.30;;;24.00;54.70;;;;;;5029272;28;20247;-73
2022/07/04 03:42:58;;;;;;;1.67;1.58;;;24.00;54.60;;;;;;5014297;28;20585;-73
2022/07/04 03:45:25;;;;;;;1.73;1.60;;;24.00;54.40;;;;;;5029514;28;20201;-73
2022/07/04 03:47:52;;;;;;;1.55;1.45;;;24.00;54.40;;;;;;5029314;28;20200;-72
2022/07/04 03:50:20;;;;;;;1.55;1.40;;;24.00;54.30;;;;;;5014052;28;20272;-73
2022/07/04 03:52:48;;;;;;;2.35;1.52;;;24.00;54.40;;;;;;5013946;28;20630;-73
2022/07/04 03:55:15;;;;;;;1.40;1.30;;;24.00;54.50;;;;;;5029381;28;20224;-73
2022/07/04 03:57:42;;;;;;;2.33;1.40;;;23.90;54.50;;;;;;5029145;28;20216;-73
2022/07/04 04:00:11;;;;;;;1.67;1.50;;;24.00;54.60;;;;;;5029054;28;20736;-72
2022/07/04 04:02:41;;;;;;;1.40;1.30;;;24.00;54.60;;;;;;5012760;28;20251;-73
2022/07/04 04:07:55;;;;;;;1.80;1.55;;;24.00;54.30;;;;;;5012355;28;20338;-73
2022/07/04 04:13:11;;;;;;;1.95;1.60;;;24.00;54.50;;;;;;5290591;22;20239;-73
2022/07/04 04:15:38;;;;;;;2.78;1.75;;;23.90;54.50;;;;;;5052208;28;20208;-73
2022/07/04 04:18:06;;;;;;;2.53;1.70;;;23.90;54.80;;;;;;5053417;28;20246;-73
2022/07/04 04:20:33;;;;;;;3.85;1.73;;;23.70;54.60;;;;;;5106485;22;20237;-72
2022/07/04 04:23:01;;;;;;;2.92;1.60;;;23.70;54.80;;;;;;5053179;28;20211;-73
2022/07/04 04:25:28;;;;;;;2.67;1.77;;;23.70;54.70;;;;;;5052005;28;20199;-74
2022/07/04 04:27:55;;;;;;;5.38;1.80;;;23.60;54.90;;;;;;5124581;22;20234;-66
2022/07/04 04:30:22;;;;;;;3.42;1.60;;;23.50;54.90;;;;;;5051860;28;20203;-69
2022/07/04 04:32:50;;;;;;;2.80;1.60;;;23.50;55.10;;;;;;5053380;28;20616;-68
2022/07/04 04:35:17;;;;;;;2.08;1.50;;;23.50;55.30;;;;;;5052952;28;20199;-67
2022/07/04 04:37:44;;;;;;;3.00;1.70;;;23.40;55.40;;;;;;5057348;28;20207;-68
2022/07/04 04:40:13;;;;;;;3.05;2.10;;;23.40;55.60;;;;;;5056093;28;20202;-67
2022/07/04 04:42:40;;;;;;;2.30;1.70;;;23.30;55.80;;;;;;5072800;28;20227;-68
2022/07/04 04:45:08;;;;;;;4.20;1.70;;;23.30;55.90;;;;;;5056178;28;20202;-67
2022/07/04 04:47:35;;;;;;;3.70;1.60;;;23.30;55.90;;;;;;5072987;28;20222;-67
2022/07/04 04:50:02;;;;;;;3.83;1.80;;;23.20;56.10;;;;;;5057937;28;20283;-67
2022/07/04 04:52:30;;;;;;;4.63;1.90;;;23.20;56.10;;;;;;5072620;28;20648;-67
2022/07/04 04:54:57;;;;;;;3.50;1.60;;;23.20;56.30;;;;;;5056398;28;20633;-68
2022/07/04 04:57:26;;;;;;;2.30;1.67;;;23.30;56.20;;;;;;5055532;28;20219;-69
2022/07/04 04:59:53;;;;;;;4.18;2.08;;;23.40;56.10;;;;;;5055581;28;20195;-70
2022/07/04 05:02:19;;;;;;;2.33;1.52;;;23.40;55.90;;;;;;5072490;28;20280;-70
2022/07/04 05:04:48;;;;;;;2.47;1.70;;;23.50;55.90;;;;;;5055616;28;20206;-69
2022/07/04 05:07:15;;;;;;;2.30;1.60;;;23.50;55.90;;;;;;5072025;28;20294;-69
2022/07/04 05:09:42;;;;;;;2.58;1.70;;;23.60;55.80;;;;;;5055833;28;20683;-69
2022/07/04 05:12:09;;;;;;;2.40;1.40;;;23.70;55.70;;;;;;5072419;28;20199;-69
2022/07/04 05:14:37;;;;;;;2.97;1.60;;;23.70;55.30;;;;;;5071950;28;20568;-67
2022/07/04 05:17:04;;;;;;;2.42;1.70;;;23.80;55.20;;;;;;5056706;28;20215;-66
2022/07/04 05:19:31;;;;;;;2.40;1.50;;;23.80;55.00;;;;;;5057018;28;20187;-66
2022/07/04 05:21:58;;;;;;;1.63;1.52;;;23.80;55.40;;;;;;5057317;28;20192;-67
2022/07/04 05:24:25;;;;;;;1.58;1.48;;;23.90;54.80;;;;;;5058133;28;20226;-66
2022/07/04 05:26:52;;;;;;;1.48;1.38;;;23.90;55.40;;;;;;5057208;28;20222;-66
2022/07/04 05:29:19;;;;;;;1.90;1.65;;;23.90;54.80;;;;;;5056179;28;20209;-68
2022/07/04 05:31:48;;;;;;;2.03;1.50;;;23.90;54.80;;;;;;5072861;28;20204;-67
2022/07/04 05:34:16;;;;;;;1.83;1.58;;;23.90;54.80;;;;;;5056217;28;20226;-68
2022/07/04 05:36:43;;;;;;;1.45;1.35;;;24.00;54.90;;;;;;5056928;28;20250;-68
2022/07/04 05:39:10;;;;;;;1.50;1.40;;;24.00;54.90;;;;;;5057380;28;20730;-68
2022/07/04 05:41:37;;;;;;;3.40;1.80;;;24.00;55.00;;;;;;5056003;28;20198;-68
2022/07/04 05:44:05;;;;;;;4.55;1.67;;;24.00;54.60;;;;;;5072964;28;20204;-68
2022/07/04 05:46:31;;;;;;;1.80;1.60;;;24.10;54.50;;;;;;5072440;28;20220;-68
2022/07/04 05:49:00;;;;;;;3.10;1.55;;;24.30;54.60;;;;;;5056302;28;20191;-68
2022/07/04 05:51:28;;;;;;;2.90;1.70;;;24.40;54.10;;;;;;5073673;28;20204;-68
2022/07/04 05:53:55;;;;;;;1.85;1.70;;;24.60;53.80;;;;;;5057400;28;20196;-67
2022/07/04 05:56:23;;;;;;;2.42;1.60;;;24.70;53.60;;;;;;5057266;28;20191;-67
2022/07/04 05:58:50;;;;;;;1.52;1.40;;;24.80;53.30;;;;;;5056704;28;20219;-68
2022/07/04 06:01:17;;;;;;;2.78;1.60;;;24.90;52.90;;;;;;5066940;28;20180;-68
2022/07/04 06:03:44;;;;;;;2.72;1.50;;;25.00;52.80;;;;;;5068170;28;20201;-68
2022/07/04 06:06:13;;;;;;;1.50;1.40;;;25.10;52.50;;;;;;5074265;28;20207;-67
2022/07/04 06:08:40;;;;;;;1.30;1.20;;;25.20;52.40;;;;;;5059365;28;20253;-67
2022/07/04 06:11:07;;;;;;;1.65;1.55;;;25.30;52.10;;;;;;5058521;28;20754;-68
2022/07/04 06:13:34;;;;;;;1.70;1.60;;;25.30;52.00;;;;;;5055418;28;20246;-67
2022/07/04 06:16:01;;;;;;;2.28;1.45;;;25.40;52.00;;;;;;5056036;28;20213;-68
2022/07/04 06:18:29;;;;;;;1.83;1.40;;;25.40;51.90;;;;;;5054499;28;20318;-68
2022/07/04 06:20:56;;;;;;;2.13;1.50;;;25.40;51.80;;;;;;5054613;28;20683;-68
2022/07/04 06:23:24;;;;;;;1.40;1.25;;;25.40;51.70;;;;;;5071524;28;20590;-67
2022/07/04 06:25:51;;;;;;;1.77;1.48;;;25.40;51.70;;;;;;5055184;28;20187;-68
2022/07/04 06:28:18;;;;;;;1.40;1.30;;;25.40;51.70;;;;;;5054532;28;20215;-67
2022/07/04 06:30:46;;;;;;;2.88;1.40;;;25.40;51.70;;;;;;5055685;28;20191;-68
2022/07/04 06:33:13;;;;;;;1.65;1.55;;;25.40;51.60;;;;;;5054336;28;20200;-68
2022/07/04 06:35:45;;;;;;;2.58;1.63;;;25.50;51.70;;;;;;5055552;28;20190;-68
2022/07/04 06:38:14;;;;;;;1.50;1.33;;;25.50;51.60;;;;;;5054203;28;20318;-68
2022/07/04 06:40:42;;;;;;;1.75;1.40;;;25.50;51.50;;;;;;5071240;28;20202;-67
2022/07/04 06:43:09;;;;;;;1.40;1.30;;;25.60;51.40;;;;;;5054225;28;20249;-68
2022/07/04 06:45:36;;;;;;;1.60;1.50;;;25.60;51.20;;;;;;5054046;28;20195;-68
2022/07/04 06:48:04;;;;;;;1.40;1.30;;;25.70;51.00;;;;;;5054240;28;20207;-68
2022/07/04 06:50:32;;;;;;;1.73;1.40;;;25.80;50.90;;;;;;5054026;28;20556;-68
2022/07/04 06:53:00;;;;;;;1.30;1.17;;;25.80;50.70;;;;;;5070558;28;20234;-68
2022/07/04 06:55:27;;;;;;;2.20;1.40;;;25.80;50.60;;;;;;5055255;28;20656;-68
2022/07/04 06:57:55;;;;;;;1.60;1.40;;;25.90;50.40;;;;;;5054166;28;20261;-68
2022/07/04 07:00:22;;;;;;;2.53;1.60;;;25.90;50.30;;;;;;5053834;28;20191;-68
2022/07/04 07:02:49;;;;;;;1.80;1.40;;;25.90;50.30;;;;;;5070313;28;20572;-68
2022/07/04 07:05:16;;;;;;;1.38;1.27;;;25.90;50.30;;;;;;5070241;28;20204;-72
2022/07/04 07:07:44;;;;;;;1.40;1.30;;;26.00;50.30;;;;;;5053325;28;20264;-68
2022/07/04 07:10:11;;;;;;;1.67;1.48;;;26.00;50.30;;;;;;5054953;28;20245;-68
2022/07/04 07:12:38;;;;;;;1.50;1.40;;;26.00;50.30;;;;;;5070278;28;20196;-68
2022/07/04 07:15:08;;;;;;;1.60;1.50;;;26.00;50.30;;;;;;5055667;28;20615;-68
2022/07/04 07:17:35;;;;;;;1.48;1.38;;;26.00;50.30;;;;;;5054248;28;20219;-68
2022/07/04 07:20:03;;;;;;;1.27;1.15;;;26.00;50.30;;;;;;5069900;28;20656;-68
2022/07/04 07:22:29;;;;;;;2.20;1.50;;;26.00;50.20;;;;;;5069836;28;20199;-68
2022/07/04 07:24:57;;;;;;;1.85;1.45;;;26.00;50.10;;;;;;5052945;28;20215;-68
2022/07/04 07:27:24;;;;;;;1.88;1.40;;;26.00;50.00;;;;;;5053159;28;20276;-68
2022/07/04 07:29:50;;;;;;;1.60;1.40;;;26.10;50.60;;;;;;5069681;28;20195;-68
2022/07/04 07:32:19;;;;;;;1.15;1.15;;;26.10;50.00;;;;;;5052949;28;20206;-68
2022/07/04 07:34:46;;;;;;;2.25;1.40;;;26.10;49.90;;;;;;5053008;28;20265;-67
2022/07/04 07:37:13;;;;;;;1.85;1.40;;;26.10;49.90;;;;;;5069539;28;20699;-68
2022/07/04 07:39:40;;;;;;;1.77;1.20;;;26.10;49.90;;;;;;5052847;28;20219;-68
2022/07/04 07:42:07;;;;;;;1.55;1.30;;;26.10;49.90;;;;;;5054164;28;20668;-68
2022/07/04 07:44:34;;;;;;;1.45;1.35;;;26.10;50.00;;;;;;5052817;28;20249;-67
2022/07/04 07:47:02;;;;;;;1.50;1.40;;;26.00;50.00;;;;;;5052589;28;20227;-68
2022/07/04 07:49:30;;;;;;;1.38;1.33;;;26.00;50.00;;;;;;5052737;28;20669;-68
2022/07/04 07:51:57;;;;;;;1.40;1.30;;;26.00;50.00;;;;;;5052825;28;20195;-68
2022/07/04 07:54:24;;;;;;;1.40;1.30;;;26.00;50.00;;;;;;5069329;28;20575;-68
2022/07/04 07:56:51;;;;;;;1.65;1.25;;;26.00;50.10;;;;;;5069207;28;20223;-68
2022/07/04 07:59:19;;;;;;;1.40;1.30;;;26.00;50.10;;;;;;5052497;28;20309;-68
2022/07/04 08:01:46;;;;;;;1.13;1.10;;;26.00;50.10;;;;;;5052865;28;20249;-68
2022/07/04 08:06:59;;;;;;;1.20;1.10;;;26.00;50.00;;;;;;5052813;28;20222;-68
2022/07/04 08:09:26;;;;;;;1.30;1.20;;;26.00;50.00;;;;;;5053599;28;20183;-68
2022/07/04 08:11:53;;;;;;;1.42;1.33;;;26.10;50.00;;;;;;5069090;28;20266;-68
2022/07/04 08:14:20;;;;;;;2.20;1.30;;;26.00;49.90;;;;;;5068985;28;20191;-67
2022/07/04 08:16:47;;;;;;;1.70;1.40;;;26.10;50.00;;;;;;5052358;28;20215;-68
2022/07/04 08:19:14;;;;;;;1.40;1.30;;;26.10;50.00;;;;;;5068996;28;20266;-68
2022/07/04 08:21:41;;;;;;;1.50;1.40;;;26.10;50.10;;;;;;5069028;28;20647;-68
2022/07/04 08:24:10;;;;;;;1.35;1.20;;;26.00;50.00;;;;;;5052117;28;20260;-68
2022/07/04 08:26:39;;;;;;;1.58;1.48;;;26.00;50.10;;;;;;5052169;28;20765;-68
2022/07/04 08:29:18;;;;;;;1.58;1.48;;;26.00;50.20;;;;;;5069138;28;20315;-67
2022/07/04 08:31:45;;;;;;;1.77;1.58;;;26.00;50.20;;;;;;5053660;28;20176;-68
2022/07/04 08:34:12;;;;;;;1.80;1.50;;;25.90;50.20;;;;;;5052094;28;20205;-68
2022/07/04 08:36:40;;;;;;;1.30;1.20;;;25.90;50.20;;;;;;5053684;28;20211;-68
2022/07/04 08:39:07;;;;;;;2.17;1.70;;;26.00;50.30;;;;;;5052913;28;20215;-67
2022/07/04 08:41:38;;;;;;;1.25;1.13;;;25.90;50.30;;;;;;5052528;28;20215;-68
2022/07/04 08:44:07;;;;;;;1.52;1.42;;;25.90;50.30;;;;;;5052058;28;20577;-68
2022/07/04 08:46:34;;;;;;;1.50;1.40;;;25.90;50.30;;;;;;5052110;28;20223;-68
2022/07/04 08:49:01;;;;;;;1.50;1.40;;;25.90;50.30;;;;;;5052439;28;20282;-68
2022/07/04 08:51:33;;;;;;;1.77;1.40;;;25.90;50.30;;;;;;5052204;28;20199;-68
2022/07/04 08:54:01;;;;;;;1.58;1.30;;;25.90;50.30;;;;;;5052267;28;20198;-68
2022/07/04 08:59:19;;;;;;;1.40;1.30;;;25.90;50.30;;;;;;5015248;28;20279;-68
2022/07/04 09:01:46;;;;;;;1.40;1.30;;;25.90;50.30;;;;;;5053830;28;20183;-68
2022/07/04 09:04:13;;;;;;;2.60;1.40;;;25.90;50.30;;;;;;5053362;28;20191;-68
2022/07/04 09:06:41;;;;;;;1.40;1.30;;;25.90;50.30;;;;;;5052189;28;20302;-69
2022/07/04 09:09:08;;;;;;;1.67;1.58;;;25.90;50.30;;;;;;5051959;28;20191;-68
2022/07/04 09:11:36;;;;;;;1.42;1.33;;;26.00;50.30;;;;;;5051953;28;20200;-68
2022/07/04 09:14:02;;;;;;;1.77;1.40;;;26.00;50.30;;;;;;5053346;28;20709;-68
2022/07/04 09:16:31;;;;;;;1.40;1.30;;;26.00;50.30;;;;;;5051731;28;20222;-68
2022/07/04 09:18:58;;;;;;;2.00;1.40;;;26.00;50.20;;;;;;5051812;28;20226;-68
2022/07/04 09:21:44;;;;;;;1.67;1.30;;;26.10;50.20;;;;;;5052443;28;20192;-68
2022/07/04 09:24:11;;;;;;;1.50;1.40;;;26.10;50.10;;;;;;5055528;28;20191;-68
2022/07/04 09:26:41;;;;;;;1.55;1.25;;;26.20;50.00;;;;;;5056530;28;20219;-68
2022/07/04 09:29:08;;;;;;;1.50;1.40;;;26.20;49.90;;;;;;5057010;28;20230;-68
2022/07/04 09:31:37;;;;;;;1.50;1.40;;;26.30;49.80;;;;;;5071958;28;20196;-68
2022/07/04 09:34:05;;;;;;;1.60;1.48;;;26.30;49.60;;;;;;5055214;28;20669;-68
2022/07/04 09:36:33;;;;;;;1.60;1.30;;;26.50;49.30;;;;;;5071940;28;20222;-68
2022/07/04 09:39:09;;;;;;;1.40;1.30;;;26.60;49.00;;;;;;5071902;28;20211;-68
2022/07/04 09:41:51;;;;;;;1.60;1.50;;;26.70;48.70;;;;;;5055912;28;20202;-68
2022/07/04 09:44:18;;;;;;;1.38;1.27;;;26.90;48.50;;;;;;5072201;28;20237;-68
2022/07/04 09:46:46;;;;;;;1.42;1.20;;;26.90;48.10;;;;;;5056060;28;20234;-68
2022/07/04 09:49:13;;;;;;;1.40;1.30;;;27.00;48.00;;;;;;5072098;28;20668;-68
2022/07/04 09:51:42;;;;;;;1.70;1.40;;;27.10;47.90;;;;;;5055716;28;20245;-68
2022/07/04 09:54:14;;;;;;;1.27;1.20;;;27.10;47.80;;;;;;5072048;28;20196;-68
2022/07/04 09:56:41;;;;;;;1.30;1.20;;;27.20;47.70;;;;;;5056235;28;20207;-68
2022/07/04 09:59:09;;;;;;;1.55;1.35;;;27.20;47.50;;;;;;5056361;28;20211;-68
2022/07/04 10:01:36;;;;;;;1.33;1.23;;;27.30;48.10;;;;;;5055462;28;20191;-68
2022/07/04 10:04:05;;;;;;;1.38;1.20;;;27.30;47.40;;;;;;5056453;28;20191;-68
2022/07/04 10:06:32;;;;;;;1.45;1.35;;;27.30;47.30;;;;;;5071555;28;20309;-68
2022/07/04 10:09:07;;;;;;;1.75;1.60;;;27.40;47.20;;;;;;5055123;28;20195;-68
2022/07/04 10:11:34;;;;;;;1.50;1.40;;;27.40;47.70;;;;;;5056311;28;20637;-67
2022/07/04 10:14:01;;;;;;;1.45;1.30;;;27.40;47.00;;;;;;5055498;28;20197;-67
2022/07/04 10:16:29;;;;;;;1.40;1.30;;;27.50;47.10;;;;;;5056337;28;20211;-69
2022/07/04 10:18:56;;;;;;;1.23;1.20;;;27.50;47.00;;;;;;5056966;28;20218;-68
2022/07/04 10:21:25;;;;;;;1.58;1.40;;;27.50;47.00;;;;;;5056120;28;20218;-69
2022/07/04 10:23:52;;;;;;;1.40;1.30;;;27.50;47.00;;;;;;5071695;28;20198;-68
2022/07/04 10:26:19;;;;;;;1.25;1.20;;;27.50;46.90;;;;;;5054620;28;20195;-68
2022/07/04 10:28:47;;;;;;;1.98;1.60;;;27.50;47.50;;;;;;5071966;28;20273;-69
2022/07/04 10:31:14;;;;;;;1.92;1.50;;;27.50;47.00;;;;;;5056977;28;20202;-68
2022/07/04 10:33:41;;;;;;;1.20;1.10;;;27.50;47.10;;;;;;5053755;28;20203;-68
2022/07/04 10:36:15;;;;;;;1.40;1.30;;;27.50;47.10;;;;;;5071186;28;20194;-68
2022/07/04 10:38:54;;;;;;;1.80;1.20;;;27.50;47.20;;;;;;5055641;28;20233;-68
2022/07/04 10:41:22;;;;;;;1.40;1.30;;;27.40;47.10;;;;;;5054877;28;20187;-68
2022/07/04 10:43:59;;;;;;;1.40;1.30;;;27.40;47.20;;;;;;5055533;28;20195;-68
2022/07/04 10:46:45;;;;;;;1.30;1.20;;;27.40;47.20;;;;;;5053989;28;20233;-68
2022/07/04 10:49:30;;;;;;;1.35;1.25;;;27.40;47.40;;;;;;5055631;28;20175;-68
2022/07/04 10:52:08;;;;;;;1.40;1.30;;;27.30;47.40;;;;;;5055733;28;20270;-68
2022/07/04 10:54:38;;;;;;;1.75;1.20;;;27.30;47.50;;;;;;5054016;28;20241;-69
2022/07/04 10:57:11;;;;;;;1.25;1.20;;;27.30;47.50;;;;;;5070809;28;20249;-68
2022/07/04 10:59:39;;;;;;;1.27;1.17;;;27.20;47.50;;;;;;5054001;28;20219;-67
2022/07/04 11:02:25;;;;;;;1.30;1.20;;;27.20;47.70;;;;;;5070613;28;20294;-68
2022/07/04 11:05:03;;;;;;;1.50;1.35;;;27.20;47.80;;;;;;5070620;28;20205;-68
2022/07/04 11:07:59;;;;;;;1.05;1.05;;;27.20;47.90;;;;;;5055368;28;20240;-67
2022/07/04 11:10:28;;;;;;;1.20;1.10;;;27.20;47.90;;;;;;5056126;28;20190;-68
2022/07/04 11:13:22;;;;;;;1.40;1.20;;;27.10;47.90;;;;;;5054518;28;20234;-68
2022/07/04 11:16:13;;;;;;;1.40;1.30;;;27.10;48.00;;;;;;5055676;28;20191;-68
2022/07/04 11:18:41;;;;;;;1.08;1.00;;;27.10;48.00;;;;;;5054649;28;20215;-67
2022/07/04 11:21:19;;;;;;;1.67;1.25;;;27.10;48.10;;;;;;5055817;28;20202;-68
2022/07/04 11:23:53;;;;;;;1.90;1.20;;;27.00;48.00;;;;;;5070329;28;20199;-68
2022/07/04 11:26:22;;;;;;;1.42;1.33;;;27.00;48.10;;;;;;5054209;28;20253;-68
2022/07/04 11:28:49;;;;;;;1.15;1.05;;;27.00;48.20;;;;;;5053477;28;20234;-68
2022/07/04 11:31:16;;;;;;;1.40;1.30;;;27.10;48.30;;;;;;5054518;28;20182;-68
2022/07/04 11:33:44;;;;;;;1.50;1.40;;;27.00;48.30;;;;;;5053113;28;20298;-68
2022/07/04 11:36:12;;;;;;;1.50;1.38;;;27.00;48.30;;;;;;5052826;28;20204;-67
2022/07/04 11:38:49;;;;;;;1.17;1.15;;;27.00;48.30;;;;;;5054295;28;20192;-68
2022/07/04 11:46:50;;;;;;;1.17;1.17;;;26.90;48.50;;;;;;5054204;28;20218;-68
2022/07/04 11:49:17;;;;;;;1.30;1.20;;;26.90;48.50;;;;;;5052804;28;20659;-68
2022/07/04 11:51:44;;;;;;;1.20;1.10;;;26.90;48.50;;;;;;5069388;28;20575;-68
2022/07/04 11:54:11;;;;;;;1.08;1.00;;;26.90;48.60;;;;;;5052689;28;20217;-68
2022/07/04 11:56:38;;;;;;;1.25;1.25;;;26.90;48.60;;;;;;5069159;28;20237;-68
2022/07/04 11:59:13;;;;;;;1.40;1.30;;;26.90;48.70;;;;;;5052671;28;20671;-68
2022/07/04 12:01:41;;;;;;;1.00;1.00;;;26.80;48.70;;;;;;5105069;22;20234;-69
2022/07/04 12:04:15;;;;;;;1.30;1.20;;;26.80;49.30;;;;;;5052587;28;20675;-69
2022/07/04 12:06:43;;;;;;;1.20;1.10;;;26.80;48.90;;;;;;5052396;28;20198;-71
2022/07/04 12:09:10;;;;;;;1.38;1.27;;;26.80;49.00;;;;;;5052362;28;20199;-71
2022/07/04 12:11:57;;;;;;;1.20;1.10;;;26.80;49.00;;;;;;5052384;28;20253;-71
2022/07/04 12:14:26;;;;;;;1.10;1.10;;;26.70;49.00;;;;;;5069482;28;20194;-71
2022/07/04 12:17:12;;;;;;;1.25;1.23;;;26.70;49.70;;;;;;5069378;28;20578;-71
2022/07/04 12:19:39;;;;;;;1.30;1.20;;;26.70;49.20;;;;;;5053532;28;20256;-71
2022/07/04 12:22:06;;;;;;;1.27;1.17;;;26.60;49.20;;;;;;5050922;28;20225;-72
2022/07/04 12:24:43;;;;;;;1.77;1.30;;;26.60;49.30;;;;;;5052064;28;20224;-71
2022/07/04 12:27:17;;;;;;;1.30;1.20;;;26.60;49.30;;;;;;5053637;28;20197;-71
2022/07/04 12:29:49;;;;;;;1.10;1.10;;;26.60;49.40;;;;;;5068719;28;20692;-71
2022/07/04 12:32:16;;;;;;;1.08;1.00;;;26.60;49.40;;;;;;5052874;28;20221;-71
2022/07/04 12:34:43;;;;;;;1.33;1.23;;;26.60;49.30;;;;;;5053388;28;20201;-71
2022/07/04 12:37:10;;;;;;;1.10;1.10;;;26.70;49.30;;;;;;5053947;28;20195;-71
2022/07/04 12:39:39;;;;;;;1.08;1.08;;;26.70;49.30;;;;;;5051764;28;20226;-71
2022/07/04 12:42:10;;;;;;;1.38;1.27;;;26.70;49.30;;;;;;5052077;28;20241;-71
2022/07/04 12:44:37;;;;;;;1.08;1.08;;;26.70;49.20;;;;;;5053066;28;20270;-71
2022/07/04 12:47:06;;;;;;;1.10;1.10;;;26.70;49.20;;;;;;5053021;28;20194;-71
2022/07/04 12:49:33;;;;;;;1.20;1.10;;;26.80;49.20;;;;;;5052991;28;20197;-71
2022/07/04 12:52:07;;;;;;;1.15;1.10;;;26.80;49.20;;;;;;5051885;28;20267;-72
2022/07/04 12:54:35;;;;;;;1.30;1.20;;;26.80;49.20;;;;;;5053507;28;20223;-72
2022/07/04 12:57:06;;;;;;;1.13;1.10;;;26.80;49.20;;;;;;5055373;28;20183;-71
2022/07/04 12:59:34;;;;;;;1.20;1.10;;;26.80;49.20;;;;;;5072266;28;20302;-71
2022/07/04 13:02:01;;;;;;;1.30;1.20;;;26.80;49.20;;;;;;5056818;28;20710;-71
2022/07/04 13:04:30;;;;;;;1.00;1.00;;;26.80;49.20;;;;;;5055636;28;20206;-71
2022/07/04 13:06:59;;;;;;;1.30;1.25;;;26.80;49.20;;;;;;5072211;28;20200;-71
2022/07/04 13:09:26;;;;;;;1.40;1.30;;;26.80;49.30;;;;;;5072087;28;20194;-71
2022/07/04 13:14:38;;;;;;;1.38;1.27;;;26.80;49.30;;;;;;5055491;28;20270;-71
2022/07/04 13:17:05;;;;;;;1.30;1.20;;;26.80;49.30;;;;;;5055363;28;20194;-71
2022/07/04 13:19:33;;;;;;;1.20;1.10;;;26.80;49.40;;;;;;5055183;28;20191;-71